KBDE/BDE METAR and TAF weather

Enter ICAO airport designator
Station Type Date Time Source
KBDE METAR 2018/12/12 22:53 UTC NOAA

KBDE 122253Z AUTO 17011KT 8SM OVC010 M04/M07 A2971 RMK AO2 SLP081 T10441067


Station Type Date Time Source
KBDE Decoded METAR 2018/12/12 22:53 UTC NOAA

BAUDETTE INTERNATIONAL AIRPORT, MN, United States (KBDE) 48-44N 94-37W 329M
Dec 12, 2018 - 05:53 PM EST / 2018.12.12 2253 UTC
Wind: from the S (170 degrees) at 13 MPH (11 KT):0
Visibility: 8 mile(s):0
Sky conditions: overcast
Temperature: 24.1 F (-4.4 C)
Windchill: 12 F (-11 C):1
Dew Point: 19.9 F (-6.7 C)
Relative Humidity: 83%
Pressure (altimeter): 29.71 in. Hg (1006 hPa)
ob: KBDE 122253Z AUTO 17011KT 8SM OVC010 M04/M07 A2971 RMK AO2 SLP081 T10441067
cycle: 23

Station Type Date Time Source
KBDE TAF UTC NOAA

Error!


Example: see airport list